Warning: Javascript must be enabled to use all the features on this page!


Page Loading - Please Wait...

* We've detected you're using a mobile device. Find our Next Generation Station Page here.
Click to hideNews Bulletins

Peak Streamflow for the Nation

USGS 02481000 BILOXI RIVER AT WORTHAM, MS

Harrison County, Mississippi
Hydrologic Unit Code 03170009
Latitude  30°33'31", Longitude  89°07'19" NAD83
Drainage area 96.2  square miles
Contributing drainage area 96.2  square miles
Gage datum 18.4 feet above NAVD88
Output formats
Table
Graph
Tab-separated file
peakfq (watstore) format
Reselect output format
Water
Year
Date Gage
Height
(feet)
Stream-
flow
(cfs)
1948 1948 23.303,Bm 9,0007,Bm
1953 1953-04-25 16.843 5,880
1954 1953-12-12 10.283 2,470
1955 1955-04-13 19.333 7,460
1956 1956-09-24 13.863 4,220
1957 1957-09-18 21.083 7,740
1958 1958-01-21 11.343 2,920
1959 1959-06-09 15.473 5,120
1960 1960-09-16 16.603 5,120
1961 1961-03-17 20.503 7,520
1962 1961-11-14 18.263 6,210
1963 1963-01-20 8.193 1,690
1964 1964-04-27 20.943 8,420
1965 1965-01-23 11.913 3,170
1966 1966-01-05 12.603 3,450
1967 1967-01-01 11.953 3,190
1968 1967-12-10 16.023 5,080
1969 1969-03-18 13.533 3,840
1970 1970-03-04 12.313 3,330
1971 1970-12-16 13.393 3,770
1972 1972-01-20 16.843 5,490
1973 1973-09-13 20.333 7,420
1974 1974-04-13 13.153 3,820
1975 1975-06-11 12.973 3,600
1976 1976-05-28 12.443 3,390
1977 1977-03-12 16.123 5,130
1978 1978-05-03 18.436 5,320
1979 1979-09-13 15.79 3,980
1980 1980-04-13 22.94 7,780
1981 1981-02-10 19.29 6,690
1982 1982-04-25 19.10 5,780
1983 1983-04-08 25.30 10,300
1984 1983-12-11 18.84 6,300
1985 1985-09-23 22.55 8,500
1986 1985-10-29 15.34 4,440
1987 1987-03-18 20.06 6,440
1988 1988-04-02 19.04 5,820
1989 1989-07-05 15.16 3,920
1990 1990-05-13 20.24 6,560
1991 1991-05-18 20.85 6,990
1992 1992-02-17 13.89 3,410
1993 1993-01-21 22.96 7,000
1994 1993-10-30 11.19 2,430
1995 1995-05-09 28.94 13,500
1996 1995-12-19 16.73 4,390
1997 1997-07-25 10.80 2,270
1998 1998-09-29 25.43 9,280
1999 1999-03-14 13.35 3,120
2000 2000-04-14 6.79 1,100
2001 2001-03-04 18.24 4,950
2002 2002-09-26 24.99 8,950
2003 2003-07-01 22.11 6,860
2004 2004-05-13 14.11 3,390
2005 2005-08-30 25.61 9,440
2006 2006-04-26 8.26 1,580
2007 2006-12-22 22.54 7,120
2008 2008-04-05 17.66 4,710
2009 2009-03-28 20.20 5,800
2010 2009-12-15 15.94 4,030
2011 2011-09-05 12.01 2,650
2012 2012-08-30 26.32 9,640
2013 2013-02-26 13.99 3,350
2014 2014-03-28 14.88 3,550
2015 2015-05-17 22.02 6,610
2016 2016-04-28 18.84 5,080
2017 2017-06-22 22.21 6,340
2018 2018-04-15 21.48 6,340
2019 2019-05-12 26.70 10,100
2020 2020-06-08 11.31 2,380
2021 2021-08-31 24.69 8,230
2022 2022-08-26 15.11 3,630
2023 2023-01-30 12.13 2,460
?
  Peak Gage-Height Qualification Codes.
?
  Peak Streamflow Qualification Codes.